sensor_id;sensor_type;location;lat;lon;timestamp;temperature;humidity
73586;DHT22;61865;50.232;18.614;2023-04-01T00:00:59;7.10;99.90
73586;DHT22;61865;50.232;18.614;2023-04-01T00:03:22;7.10;99.90
73586;DHT22;61865;50.232;18.614;2023-04-01T00:05:44;7.10;99.90
73586;DHT22;61865;50.232;18.614;2023-04-01T00:08:06;7.10;99.90
73586;DHT22;61865;50.232;18.614;2023-04-01T00:10:28;7.10;99.90
73586;DHT22;61865;50.232;18.614;2023-04-01T00:12:50;7.20;99.90
73586;DHT22;61865;50.232;18.614;2023-04-01T00:15:13;7.10;99.90
73586;DHT22;61865;50.232;18.614;2023-04-01T00:17:36;7.10;99.90
73586;DHT22;61865;50.232;18.614;2023-04-01T00:19:58;7.00;99.90
73586;DHT22;61865;50.232;18.614;2023-04-01T00:22:20;6.90;99.90
73586;DHT22;61865;50.232;18.614;2023-04-01T00:24:42;6.90;99.90
73586;DHT22;61865;50.232;18.614;2023-04-01T00:27:05;6.80;99.90
73586;DHT22;61865;50.232;18.614;2023-04-01T00:29:28;6.80;99.90
73586;DHT22;61865;50.232;18.614;2023-04-01T00:31:52;6.80;99.90
73586;DHT22;61865;50.232;18.614;2023-04-01T00:34:14;6.70;99.90
73586;DHT22;61865;50.232;18.614;2023-04-01T00:36:36;6.70;99.90
73586;DHT22;61865;50.232;18.614;2023-04-01T00:38:58;6.70;99.90
73586;DHT22;61865;50.232;18.614;2023-04-01T00:41:21;6.70;99.90
73586;DHT22;61865;50.232;18.614;2023-04-01T00:43:44;6.70;99.90
73586;DHT22;61865;50.232;18.614;2023-04-01T00:46:06;6.70;99.90
73586;DHT22;61865;50.232;18.614;2023-04-01T00:48:33;6.70;99.90
73586;DHT22;61865;50.232;18.614;2023-04-01T00:50:58;6.90;99.90
73586;DHT22;61865;50.232;18.614;2023-04-01T00:53:21;6.90;99.90
73586;DHT22;61865;50.232;18.614;2023-04-01T00:55:47;7.00;99.90
73586;DHT22;61865;50.232;18.614;2023-04-01T00:58:15;7.10;99.90
73586;DHT22;61865;50.232;18.614;2023-04-01T01:00:38;7.20;99.90
73586;DHT22;61865;50.232;18.614;2023-04-01T01:03:00;7.30;99.90
73586;DHT22;61865;50.232;18.614;2023-04-01T01:05:31;7.40;99.90
73586;DHT22;61865;50.232;18.614;2023-04-01T01:08:02;7.40;99.90
73586;DHT22;61865;50.232;18.614;2023-04-01T01:10:30;7.50;99.90
73586;DHT22;61865;50.232;18.614;2023-04-01T01:12:59;7.50;99.90
73586;DHT22;61865;50.232;18.614;2023-04-01T01:15:26;7.50;99.90
73586;DHT22;61865;50.232;18.614;2023-04-01T01:17:57;7.40;99.90
73586;DHT22;61865;50.232;18.614;2023-04-01T01:29:09;7.20;99.90
73586;DHT22;61865;50.232;18.614;2023-04-01T01:31:38;7.10;99.90
73586;DHT22;61865;50.232;18.614;2023-04-01T01:34:09;7.00;99.90
73586;DHT22;61865;50.232;18.614;2023-04-01T01:36:40;6.90;99.90
73586;DHT22;61865;50.232;18.614;2023-04-01T01:39:06;6.80;99.90
73586;DHT22;61865;50.232;18.614;2023-04-01T01:41:31;6.70;99.90
73586;DHT22;61865;50.232;18.614;2023-04-01T01:43:55;6.70;99.90
73586;DHT22;61865;50.232;18.614;2023-04-01T01:46:21;6.70;99.90
73586;DHT22;61865;50.232;18.614;2023-04-01T01:48:44;6.60;99.90
73586;DHT22;61865;50.232;18.614;2023-04-01T01:51:07;6.60;99.90
73586;DHT22;61865;50.232;18.614;2023-04-01T01:53:31;6.50;99.90
73586;DHT22;61865;50.232;18.614;2023-04-01T01:55:53;6.50;99.90
73586;DHT22;61865;50.232;18.614;2023-04-01T01:58:18;6.50;99.90
73586;DHT22;61865;50.232;18.614;2023-04-01T02:00:42;6.50;99.90
73586;DHT22;61865;50.232;18.614;2023-04-01T02:03:05;6.50;99.90
73586;DHT22;61865;50.232;18.614;2023-04-01T02:05:29;6.50;99.90
73586;DHT22;61865;50.232;18.614;2023-04-01T02:07:56;6.60;99.90
73586;DHT22;61865;50.232;18.614;2023-04-01T02:10:22;6.60;99.90
73586;DHT22;61865;50.232;18.614;2023-04-01T02:12:46;6.70;99.90
73586;DHT22;61865;50.232;18.614;2023-04-01T02:15:11;6.70;99.90
73586;DHT22;61865;50.232;18.614;2023-04-01T02:17:39;6.80;99.90
73586;DHT22;61865;50.232;18.614;2023-04-01T02:20:06;6.80;99.90
73586;DHT22;61865;50.232;18.614;2023-04-01T02:22:32;6.80;99.90
73586;DHT22;61865;50.232;18.614;2023-04-01T02:25:00;6.90;99.90
73586;DHT22;61865;50.232;18.614;2023-04-01T02:27:24;6.90;99.90
73586;DHT22;61865;50.232;18.614;2023-04-01T02:29:46;7.10;99.90
73586;DHT22;61865;50.232;18.614;2023-04-01T02:32:09;7.10;99.90
73586;DHT22;61865;50.232;18.614;2023-04-01T02:34:31;7.20;99.90
73586;DHT22;61865;50.232;18.614;2023-04-01T02:36:55;7.30;99.90
73586;DHT22;61865;50.232;18.614;2023-04-01T02:39:18;7.20;99.90
73586;DHT22;61865;50.232;18.614;2023-04-01T02:41:40;7.30;99.90
73586;DHT22;61865;50.232;18.614;2023-04-01T02:44:05;7.30;99.90
73586;DHT22;61865;50.232;18.614;2023-04-01T02:46:27;7.30;99.90
73586;DHT22;61865;50.232;18.614;2023-04-01T02:48:49;7.40;99.90
73586;DHT22;61865;50.232;18.614;2023-04-01T02:51:11;7.40;99.90
73586;DHT22;61865;50.232;18.614;2023-04-01T02:53:33;7.30;99.90
73586;DHT22;61865;50.232;18.614;2023-04-01T02:55:55;7.30;99.90
73586;DHT22;61865;50.232;18.614;2023-04-01T02:58:17;7.40;99.90
73586;DHT22;61865;50.232;18.614;2023-04-01T03:00:40;7.40;99.90
73586;DHT22;61865;50.232;18.614;2023-04-01T03:03:03;7.30;99.90
73586;DHT22;61865;50.232;18.614;2023-04-01T03:05:25;7.20;99.90
73586;DHT22;61865;50.232;18.614;2023-04-01T03:07:47;7.10;99.90
73586;DHT22;61865;50.232;18.614;2023-04-01T03:10:09;7.00;99.90
73586;DHT22;61865;50.232;18.614;2023-04-01T03:12:31;6.90;99.90
73586;DHT22;61865;50.232;18.614;2023-04-01T03:14:53;6.90;99.90
73586;DHT22;61865;50.232;18.614;2023-04-01T03:17:17;6.80;99.90
73586;DHT22;61865;50.232;18.614;2023-04-01T03:19:39;6.70;99.90
73586;DHT22;61865;50.232;18.614;2023-04-01T03:22:00;6.60;99.90
73586;DHT22;61865;50.232;18.614;2023-04-01T03:24:22;6.60;99.90
73586;DHT22;61865;50.232;18.614;2023-04-01T03:26:44;6.60;99.90
73586;DHT22;61865;50.232;18.614;2023-04-01T03:29:06;6.50;99.90
73586;DHT22;61865;50.232;18.614;2023-04-01T03:31:28;6.50;99.90
73586;DHT22;61865;50.232;18.614;2023-04-01T03:33:51;6.40;99.90
73586;DHT22;61865;50.232;18.614;2023-04-01T03:36:13;6.40;99.90
73586;DHT22;61865;50.232;18.614;2023-04-01T03:38:36;6.50;99.90
73586;DHT22;61865;50.232;18.614;2023-04-01T03:40:58;6.60;99.90
73586;DHT22;61865;50.232;18.614;2023-04-01T03:43:20;6.70;99.90
73586;DHT22;61865;50.232;18.614;2023-04-01T03:45:44;6.80;99.90
73586;DHT22;61865;50.232;18.614;2023-04-01T03:48:06;6.80;99.90
73586;DHT22;61865;50.232;18.614;2023-04-01T03:50:29;6.90;99.90
73586;DHT22;61865;50.232;18.614;2023-04-01T03:52:51;7.00;99.90
73586;DHT22;61865;50.232;18.614;2023-04-01T03:55:13;7.10;99.90
73586;DHT22;61865;50.232;18.614;2023-04-01T03:57:35;7.20;99.90
73586;DHT22;61865;50.232;18.614;2023-04-01T03:59:56;7.20;99.90
73586;DHT22;61865;50.232;18.614;2023-04-01T04:02:19;7.30;99.90
73586;DHT22;61865;50.232;18.614;2023-04-01T04:04:41;7.40;99.90
73586;DHT22;61865;50.232;18.614;2023-04-01T04:07:04;7.40;99.90
73586;DHT22;61865;50.232;18.614;2023-04-01T04:09:26;7.50;99.90
73586;DHT22;61865;50.232;18.614;2023-04-01T04:11:48;7.60;99.90
73586;DHT22;61865;50.232;18.614;2023-04-01T04:14:10;7.60;99.90
73586;DHT22;61865;50.232;18.614;2023-04-01T04:16:34;7.60;99.90
73586;DHT22;61865;50.232;18.614;2023-04-01T04:18:57;7.60;99.90
73586;DHT22;61865;50.232;18.614;2023-04-01T04:21:22;7.70;99.90
73586;DHT22;61865;50.232;18.614;2023-04-01T04:23:49;7.70;99.90
73586;DHT22;61865;50.232;18.614;2023-04-01T04:26:13;7.70;99.90
73586;DHT22;61865;50.232;18.614;2023-04-01T04:28:35;7.70;99.90
73586;DHT22;61865;50.232;18.614;2023-04-01T04:30:57;7.70;99.90
73586;DHT22;61865;50.232;18.614;2023-04-01T04:33:19;7.70;99.90
73586;DHT22;61865;50.232;18.614;2023-04-01T04:35:41;7.80;99.90
73586;DHT22;61865;50.232;18.614;2023-04-01T04:38:03;7.80;99.90
73586;DHT22;61865;50.232;18.614;2023-04-01T04:40:26;7.90;99.90
73586;DHT22;61865;50.232;18.614;2023-04-01T04:42:48;8.00;99.90
73586;DHT22;61865;50.232;18.614;2023-04-01T04:45:10;8.00;99.90
73586;DHT22;61865;50.232;18.614;2023-04-01T04:47:33;8.10;99.90
73586;DHT22;61865;50.232;18.614;2023-04-01T04:49:55;8.10;99.90
73586;DHT22;61865;50.232;18.614;2023-04-01T04:52:17;8.10;99.90
73586;DHT22;61865;50.232;18.614;2023-04-01T04:54:39;8.10;99.90
73586;DHT22;61865;50.232;18.614;2023-04-01T04:57:03;8.20;99.90
73586;DHT22;61865;50.232;18.614;2023-04-01T04:59:24;8.30;99.90
73586;DHT22;61865;50.232;18.614;2023-04-01T05:01:46;8.30;99.90
73586;DHT22;61865;50.232;18.614;2023-04-01T05:04:08;8.30;99.90
73586;DHT22;61865;50.232;18.614;2023-04-01T05:06:30;8.30;99.90
73586;DHT22;61865;50.232;18.614;2023-04-01T05:08:52;8.30;99.90
73586;DHT22;61865;50.232;18.614;2023-04-01T05:11:18;8.40;99.90
73586;DHT22;61865;50.232;18.614;2023-04-01T05:13:43;8.40;99.90
73586;DHT22;61865;50.232;18.614;2023-04-01T05:16:08;8.50;99.90
73586;DHT22;61865;50.232;18.614;2023-04-01T05:18:30;8.50;99.90
73586;DHT22;61865;50.232;18.614;2023-04-01T05:20:54;8.60;99.90
73586;DHT22;61865;50.232;18.614;2023-04-01T05:23:16;8.60;99.90
73586;DHT22;61865;50.232;18.614;2023-04-01T05:25:39;8.70;99.90
73586;DHT22;61865;50.232;18.614;2023-04-01T05:28:01;8.70;99.90
73586;DHT22;61865;50.232;18.614;2023-04-01T05:30:24;8.80;99.90
73586;DHT22;61865;50.232;18.614;2023-04-01T05:32:46;8.80;99.90
73586;DHT22;61865;50.232;18.614;2023-04-01T05:35:08;8.80;99.90
73586;DHT22;61865;50.232;18.614;2023-04-01T05:37:30;8.90;99.90
73586;DHT22;61865;50.232;18.614;2023-04-01T05:39:52;8.90;99.90
73586;DHT22;61865;50.232;18.614;2023-04-01T05:42:14;8.90;99.90
73586;DHT22;61865;50.232;18.614;2023-04-01T05:44:37;8.90;99.90
73586;DHT22;61865;50.232;18.614;2023-04-01T05:47:00;9.10;99.90
73586;DHT22;61865;50.232;18.614;2023-04-01T05:49:22;9.10;99.90
73586;DHT22;61865;50.232;18.614;2023-04-01T05:51:44;9.20;99.90
73586;DHT22;61865;50.232;18.614;2023-04-01T05:54:06;9.30;99.90
73586;DHT22;61865;50.232;18.614;2023-04-01T05:56:27;9.40;99.90
73586;DHT22;61865;50.232;18.614;2023-04-01T05:58:51;9.30;99.90
73586;DHT22;61865;50.232;18.614;2023-04-01T06:01:14;9.40;99.90
73586;DHT22;61865;50.232;18.614;2023-04-01T06:03:37;9.40;99.90
73586;DHT22;61865;50.232;18.614;2023-04-01T06:05:59;9.40;99.90
73586;DHT22;61865;50.232;18.614;2023-04-01T06:08:22;9.50;99.90
73586;DHT22;61865;50.232;18.614;2023-04-01T06:10:53;9.50;99.90
73586;DHT22;61865;50.232;18.614;2023-04-01T06:13:26;9.50;99.90
73586;DHT22;61865;50.232;18.614;2023-04-01T06:15:59;9.50;99.90
73586;DHT22;61865;50.232;18.614;2023-04-01T06:18:55;9.60;99.90
73586;DHT22;61865;50.232;18.614;2023-04-01T06:21:35;9.60;99.90
73586;DHT22;61865;50.232;18.614;2023-04-01T06:24:06;9.60;99.90
73586;DHT22;61865;50.232;18.614;2023-04-01T06:26:38;9.50;99.90
73586;DHT22;61865;50.232;18.614;2023-04-01T06:29:10;9.60;99.90
73586;DHT22;61865;50.232;18.614;2023-04-01T06:31:43;9.60;99.90
73586;DHT22;61865;50.232;18.614;2023-04-01T06:37:22;9.70;99.90
73586;DHT22;61865;50.232;18.614;2023-04-01T06:40:05;9.80;99.90
73586;DHT22;61865;50.232;18.614;2023-04-01T06:42:45;9.80;99.90
73586;DHT22;61865;50.232;18.614;2023-04-01T06:45:20;9.90;99.90
73586;DHT22;61865;50.232;18.614;2023-04-01T06:48:01;9.80;99.90
73586;DHT22;61865;50.232;18.614;2023-04-01T06:50:30;9.80;99.90
73586;DHT22;61865;50.232;18.614;2023-04-01T06:53:01;9.90;99.90
73586;DHT22;61865;50.232;18.614;2023-04-01T06:55:29;10.00;99.90
73586;DHT22;61865;50.232;18.614;2023-04-01T06:57:56;10.00;99.90
73586;DHT22;61865;50.232;18.614;2023-04-01T07:00:25;10.00;99.90
73586;DHT22;61865;50.232;18.614;2023-04-01T07:02:52;10.00;99.90
73586;DHT22;61865;50.232;18.614;2023-04-01T07:05:19;10.00;99.90
73586;DHT22;61865;50.232;18.614;2023-04-01T07:07:44;10.00;99.90
73586;DHT22;61865;50.232;18.614;2023-04-01T07:10:12;10.00;99.90
73586;DHT22;61865;50.232;18.614;2023-04-01T07:12:40;10.00;99.90
73586;DHT22;61865;50.232;18.614;2023-04-01T07:15:13;9.90;99.90
73586;DHT22;61865;50.232;18.614;2023-04-01T07:17:39;10.10;99.90
73586;DHT22;61865;50.232;18.614;2023-04-01T07:20:10;10.20;99.90
73586;DHT22;61865;50.232;18.614;2023-04-01T07:22:35;10.30;99.90
73586;DHT22;61865;50.232;18.614;2023-04-01T07:25:02;10.40;99.90
73586;DHT22;61865;50.232;18.614;2023-04-01T07:27:24;10.60;99.90
73586;DHT22;61865;50.232;18.614;2023-04-01T07:29:47;10.70;99.90
73586;DHT22;61865;50.232;18.614;2023-04-01T07:32:21;10.80;99.90
73586;DHT22;61865;50.232;18.614;2023-04-01T07:34:53;10.90;99.90
73586;DHT22;61865;50.232;18.614;2023-04-01T07:37:22;11.10;99.90
73586;DHT22;61865;50.232;18.614;2023-04-01T07:39:55;11.20;99.90
73586;DHT22;61865;50.232;18.614;2023-04-01T07:42:29;11.40;99.90
73586;DHT22;61865;50.232;18.614;2023-04-01T07:45:01;11.30;99.90
73586;DHT22;61865;50.232;18.614;2023-04-01T07:47:43;11.50;99.90
73586;DHT22;61865;50.232;18.614;2023-04-01T07:50:17;11.70;99.90
73586;DHT22;61865;50.232;18.614;2023-04-01T07:52:46;11.90;99.90
73586;DHT22;61865;50.232;18.614;2023-04-01T07:55:14;12.10;99.90
73586;DHT22;61865;50.232;18.614;2023-04-01T07:57:43;12.20;99.90
73586;DHT22;61865;50.232;18.614;2023-04-01T08:00:14;12.30;99.90
73586;DHT22;61865;50.232;18.614;2023-04-01T08:02:47;12.40;99.90
73586;DHT22;61865;50.232;18.614;2023-04-01T08:05:19;12.50;99.90
73586;DHT22;61865;50.232;18.614;2023-04-01T08:07:47;12.80;99.90
73586;DHT22;61865;50.232;18.614;2023-04-01T08:10:20;13.00;99.90
73586;DHT22;61865;50.232;18.614;2023-04-01T08:12:51;13.10;99.90
73586;DHT22;61865;50.232;18.614;2023-04-01T08:15:21;12.90;99.90
73586;DHT22;61865;50.232;18.614;2023-04-01T08:17:54;12.60;99.90
73586;DHT22;61865;50.232;18.614;2023-04-01T08:20:25;12.40;99.90
73586;DHT22;61865;50.232;18.614;2023-04-01T08:22:51;12.10;99.90
73586;DHT22;61865;50.232;18.614;2023-04-01T08:25:19;12.20;99.90
73586;DHT22;61865;50.232;18.614;2023-04-01T08:27:47;11.90;99.90
73586;DHT22;61865;50.232;18.614;2023-04-01T08:30:18;11.90;99.90
73586;DHT22;61865;50.232;18.614;2023-04-01T08:32:44;12.20;99.90
73586;DHT22;61865;50.232;18.614;2023-04-01T08:35:09;12.40;99.90
73586;DHT22;61865;50.232;18.614;2023-04-01T08:37:39;12.70;99.90
73586;DHT22;61865;50.232;18.614;2023-04-01T08:40:33;12.90;99.90
73586;DHT22;61865;50.232;18.614;2023-04-01T08:43:07;13.00;99.90
73586;DHT22;61865;50.232;18.614;2023-04-01T08:45:48;13.10;99.90
73586;DHT22;61865;50.232;18.614;2023-04-01T08:48:40;12.40;99.90
73586;DHT22;61865;50.232;18.614;2023-04-01T08:51:36;11.70;99.90
73586;DHT22;61865;50.232;18.614;2023-04-01T08:56:56;11.40;99.90
73586;DHT22;61865;50.232;18.614;2023-04-01T08:59:39;11.10;99.90
73586;DHT22;61865;50.232;18.614;2023-04-01T09:05:22;11.30;99.90
73586;DHT22;61865;50.232;18.614;2023-04-01T09:07:56;11.60;99.90
73586;DHT22;61865;50.232;18.614;2023-04-01T09:10:55;11.70;99.90
73586;DHT22;61865;50.232;18.614;2023-04-01T09:13:41;11.70;99.90
73586;DHT22;61865;50.232;18.614;2023-04-01T09:16:24;12.00;99.90
73586;DHT22;61865;50.232;18.614;2023-04-01T09:19:17;12.40;99.90
73586;DHT22;61865;50.232;18.614;2023-04-01T09:21:57;11.90;99.90
73586;DHT22;61865;50.232;18.614;2023-04-01T09:24:42;11.80;99.90
73586;DHT22;61865;50.232;18.614;2023-04-01T09:27:18;11.90;99.90
73586;DHT22;61865;50.232;18.614;2023-04-01T09:29:57;12.20;99.90
73586;DHT22;61865;50.232;18.614;2023-04-01T09:32:45;12.40;99.90
73586;DHT22;61865;50.232;18.614;2023-04-01T09:35:21;12.90;99.90
73586;DHT22;61865;50.232;18.614;2023-04-01T09:37:52;13.50;99.90
73586;DHT22;61865;50.232;18.614;2023-04-01T09:40:17;13.90;99.90
73586;DHT22;61865;50.232;18.614;2023-04-01T09:42:43;14.00;99.90
73586;DHT22;61865;50.232;18.614;2023-04-01T09:45:09;13.50;99.90
73586;DHT22;61865;50.232;18.614;2023-04-01T09:47:45;13.20;99.90
73586;DHT22;61865;50.232;18.614;2023-04-01T09:50:29;13.10;99.90
73586;DHT22;61865;50.232;18.614;2023-04-01T09:52:53;12.60;99.90
73586;DHT22;61865;50.232;18.614;2023-04-01T10:01:51;11.70;99.90
73586;DHT22;61865;50.232;18.614;2023-04-01T10:04:38;12.10;99.90
73586;DHT22;61865;50.232;18.614;2023-04-01T10:07:40;12.40;99.90
73586;DHT22;61865;50.232;18.614;2023-04-01T10:14:07;12.70;99.90
73586;DHT22;61865;50.232;18.614;2023-04-01T10:17:11;13.00;99.90
73586;DHT22;61865;50.232;18.614;2023-04-01T10:29:58;12.20;99.90
73586;DHT22;61865;50.232;18.614;2023-04-01T10:38:32;11.60;99.90
73586;DHT22;61865;50.232;18.614;2023-04-01T10:44:32;12.00;99.90
73586;DHT22;61865;50.232;18.614;2023-04-01T10:47:25;12.30;99.90
73586;DHT22;61865;50.232;18.614;2023-04-01T10:56:15;13.10;99.90
73586;DHT22;61865;50.232;18.614;2023-04-01T10:59:06;13.40;99.90
73586;DHT22;61865;50.232;18.614;2023-04-01T11:14:18;11.80;99.90
73586;DHT22;61865;50.232;18.614;2023-04-01T11:17:19;11.60;99.90
73586;DHT22;61865;50.232;18.614;2023-04-01T11:20:10;11.40;99.90
73586;DHT22;61865;50.232;18.614;2023-04-01T11:23:03;11.60;99.90
73586;DHT22;61865;50.232;18.614;2023-04-01T11:25:40;11.50;99.90
73586;DHT22;61865;50.232;18.614;2023-04-01T11:31:26;12.00;99.90
73586;DHT22;61865;50.232;18.614;2023-04-01T11:33:55;11.90;99.90
73586;DHT22;61865;50.232;18.614;2023-04-01T11:36:33;11.60;99.90
73586;DHT22;61865;50.232;18.614;2023-04-01T11:39:11;11.70;99.90
73586;DHT22;61865;50.232;18.614;2023-04-01T11:41:45;11.60;99.90
73586;DHT22;61865;50.232;18.614;2023-04-01T11:44:16;11.60;99.90
73586;DHT22;61865;50.232;18.614;2023-04-01T11:46:52;11.60;99.90
73586;DHT22;61865;50.232;18.614;2023-04-01T11:49:26;11.60;99.90
73586;DHT22;61865;50.232;18.614;2023-04-01T11:52:01;12.00;99.90
73586;DHT22;61865;50.232;18.614;2023-04-01T11:54:39;12.40;99.90
73586;DHT22;61865;50.232;18.614;2023-04-01T11:57:18;12.80;99.90
73586;DHT22;61865;50.232;18.614;2023-04-01T11:59:52;12.80;99.90
73586;DHT22;61865;50.232;18.614;2023-04-01T12:02:25;12.70;99.90
73586;DHT22;61865;50.232;18.614;2023-04-01T12:07:53;12.90;99.90
73586;DHT22;61865;50.232;18.614;2023-04-01T12:10:19;12.70;99.90
73586;DHT22;61865;50.232;18.614;2023-04-01T12:12:48;12.80;99.90
73586;DHT22;61865;50.232;18.614;2023-04-01T12:15:20;12.60;99.90
73586;DHT22;61865;50.232;18.614;2023-04-01T12:17:46;12.50;99.90
73586;DHT22;61865;50.232;18.614;2023-04-01T12:20:25;12.70;99.90
73586;DHT22;61865;50.232;18.614;2023-04-01T12:22:55;12.90;99.90
73586;DHT22;61865;50.232;18.614;2023-04-01T12:25:30;13.00;99.90
73586;DHT22;61865;50.232;18.614;2023-04-01T12:28:05;13.20;99.90
73586;DHT22;61865;50.232;18.614;2023-04-01T12:30:54;13.40;99.90
73586;DHT22;61865;50.232;18.614;2023-04-01T12:33:35;13.70;99.90
73586;DHT22;61865;50.232;18.614;2023-04-01T12:36:12;14.10;99.90
73586;DHT22;61865;50.232;18.614;2023-04-01T12:38:44;14.20;99.90
73586;DHT22;61865;50.232;18.614;2023-04-01T12:41:17;14.10;99.90
73586;DHT22;61865;50.232;18.614;2023-04-01T12:46:34;14.00;99.90
73586;DHT22;61865;50.232;18.614;2023-04-01T12:49:31;13.60;99.90
73586;DHT22;61865;50.232;18.614;2023-04-01T12:52:10;13.70;99.90
73586;DHT22;61865;50.232;18.614;2023-04-01T12:55:15;14.00;99.90
73586;DHT22;61865;50.232;18.614;2023-04-01T13:01:10;14.30;99.90
73586;DHT22;61865;50.232;18.614;2023-04-01T13:06:49;14.40;99.90
73586;DHT22;61865;50.232;18.614;2023-04-01T13:09:24;14.50;99.90
73586;DHT22;61865;50.232;18.614;2023-04-01T13:12:02;13.80;99.90
73586;DHT22;61865;50.232;18.614;2023-04-01T13:14:50;13.20;99.90
73586;DHT22;61865;50.232;18.614;2023-04-01T13:17:23;13.30;99.90
73586;DHT22;61865;50.232;18.614;2023-04-01T13:19:54;13.40;99.90
73586;DHT22;61865;50.232;18.614;2023-04-01T13:22:27;13.70;99.90
73586;DHT22;61865;50.232;18.614;2023-04-01T13:24:55;13.90;99.90
73586;DHT22;61865;50.232;18.614;2023-04-01T13:27:24;13.80;99.90
73586;DHT22;61865;50.232;18.614;2023-04-01T13:29:59;13.80;99.90
73586;DHT22;61865;50.232;18.614;2023-04-01T13:32:29;13.60;99.90
73586;DHT22;61865;50.232;18.614;2023-04-01T13:35:13;13.50;99.90
73586;DHT22;61865;50.232;18.614;2023-04-01T13:38:11;13.40;99.90
73586;DHT22;61865;50.232;18.614;2023-04-01T13:40:44;13.00;99.90
73586;DHT22;61865;50.232;18.614;2023-04-01T13:43:16;12.90;99.90
73586;DHT22;61865;50.232;18.614;2023-04-01T13:45:53;12.90;99.90
73586;DHT22;61865;50.232;18.614;2023-04-01T13:48:29;12.90;99.90
73586;DHT22;61865;50.232;18.614;2023-04-01T13:51:19;13.00;99.90
73586;DHT22;61865;50.232;18.614;2023-04-01T13:54:18;13.00;99.90
73586;DHT22;61865;50.232;18.614;2023-04-01T13:56:49;13.10;99.90
73586;DHT22;61865;50.232;18.614;2023-04-01T14:02:27;12.40;99.90
73586;DHT22;61865;50.232;18.614;2023-04-01T14:05:09;11.80;99.90
73586;DHT22;61865;50.232;18.614;2023-04-01T14:07:56;11.60;99.90
73586;DHT22;61865;50.232;18.614;2023-04-01T14:10:24;10.90;99.90
73586;DHT22;61865;50.232;18.614;2023-04-01T14:12:57;10.50;99.90
73586;DHT22;61865;50.232;18.614;2023-04-01T14:15:40;10.30;99.90
73586;DHT22;61865;50.232;18.614;2023-04-01T14:20:55;9.70;99.90
73586;DHT22;61865;50.232;18.614;2023-04-01T14:23:50;9.50;99.90
73586;DHT22;61865;50.232;18.614;2023-04-01T14:26:26;9.40;99.90
73586;DHT22;61865;50.232;18.614;2023-04-01T14:28:59;9.50;99.90
73586;DHT22;61865;50.232;18.614;2023-04-01T14:31:36;9.70;99.90
73586;DHT22;61865;50.232;18.614;2023-04-01T14:34:15;9.90;99.90
73586;DHT22;61865;50.232;18.614;2023-04-01T14:42:47;10.10;99.90
73586;DHT22;61865;50.232;18.614;2023-04-01T14:48:15;10.30;99.90
73586;DHT22;61865;50.232;18.614;2023-04-01T14:50:42;10.50;99.90
73586;DHT22;61865;50.232;18.614;2023-04-01T14:53:26;10.50;99.90
73586;DHT22;61865;50.232;18.614;2023-04-01T14:55:51;10.50;99.90
73586;DHT22;61865;50.232;18.614;2023-04-01T14:58:16;10.60;99.90
73586;DHT22;61865;50.232;18.614;2023-04-01T15:00:51;10.70;99.90
73586;DHT22;61865;50.232;18.614;2023-04-01T15:03:20;10.80;99.90
73586;DHT22;61865;50.232;18.614;2023-04-01T15:05:49;10.80;99.90
73586;DHT22;61865;50.232;18.614;2023-04-01T15:08:15;10.80;99.90
73586;DHT22;61865;50.232;18.614;2023-04-01T15:16:33;10.80;99.90
73586;DHT22;61865;50.232;18.614;2023-04-01T15:19:04;10.80;99.90
73586;DHT22;61865;50.232;18.614;2023-04-01T15:21:44;10.70;99.90
73586;DHT22;61865;50.232;18.614;2023-04-01T15:24:15;10.60;99.90
73586;DHT22;61865;50.232;18.614;2023-04-01T15:27:05;10.60;99.90
73586;DHT22;61865;50.232;18.614;2023-04-01T15:29:52;10.50;99.90
73586;DHT22;61865;50.232;18.614;2023-04-01T15:32:26;10.40;99.90
73586;DHT22;61865;50.232;18.614;2023-04-01T15:34:59;10.30;99.90
73586;DHT22;61865;50.232;18.614;2023-04-01T15:37:34;10.30;99.90
73586;DHT22;61865;50.232;18.614;2023-04-01T15:40:06;10.20;99.90
73586;DHT22;61865;50.232;18.614;2023-04-01T15:42:41;10.20;99.90
73586;DHT22;61865;50.232;18.614;2023-04-01T15:45:16;10.20;99.90
73586;DHT22;61865;50.232;18.614;2023-04-01T15:47:42;10.10;99.90
73586;DHT22;61865;50.232;18.614;2023-04-01T15:53:11;10.10;99.90
73586;DHT22;61865;50.232;18.614;2023-04-01T15:55:39;10.10;99.90
73586;DHT22;61865;50.232;18.614;2023-04-01T15:58:27;10.00;99.90
73586;DHT22;61865;50.232;18.614;2023-04-01T16:00:58;9.90;99.90
73586;DHT22;61865;50.232;18.614;2023-04-01T16:03:30;9.90;99.90
73586;DHT22;61865;50.232;18.614;2023-04-01T16:06:09;9.90;99.90
73586;DHT22;61865;50.232;18.614;2023-04-01T16:08:56;9.80;99.90
73586;DHT22;61865;50.232;18.614;2023-04-01T16:11:28;9.90;99.90
73586;DHT22;61865;50.232;18.614;2023-04-01T16:14:04;9.90;99.90
73586;DHT22;61865;50.232;18.614;2023-04-01T16:16:41;9.90;99.90
73586;DHT22;61865;50.232;18.614;2023-04-01T16:19:23;9.90;99.90
73586;DHT22;61865;50.232;18.614;2023-04-01T16:21:57;9.90;99.90
73586;DHT22;61865;50.232;18.614;2023-04-01T16:24:24;9.80;99.90
73586;DHT22;61865;50.232;18.614;2023-04-01T16:26:55;9.90;99.90
73586;DHT22;61865;50.232;18.614;2023-04-01T16:29:25;9.80;99.90
73586;DHT22;61865;50.232;18.614;2023-04-01T16:31:52;9.80;99.90
73586;DHT22;61865;50.232;18.614;2023-04-01T16:34:20;9.70;99.90
73586;DHT22;61865;50.232;18.614;2023-04-01T16:36:47;9.70;99.90
73586;DHT22;61865;50.232;18.614;2023-04-01T16:39:32;9.60;99.90
73586;DHT22;61865;50.232;18.614;2023-04-01T16:44:55;9.50;99.90
73586;DHT22;61865;50.232;18.614;2023-04-01T16:47:20;9.50;99.90
73586;DHT22;61865;50.232;18.614;2023-04-01T16:49:47;9.50;99.90
73586;DHT22;61865;50.232;18.614;2023-04-01T16:52:15;9.50;99.90
73586;DHT22;61865;50.232;18.614;2023-04-01T16:54:45;9.50;99.90
73586;DHT22;61865;50.232;18.614;2023-04-01T16:57:18;9.50;99.90
73586;DHT22;61865;50.232;18.614;2023-04-01T16:59:45;9.40;99.90
73586;DHT22;61865;50.232;18.614;2023-04-01T17:02:12;9.30;99.90
73586;DHT22;61865;50.232;18.614;2023-04-01T17:04:38;9.30;99.90
73586;DHT22;61865;50.232;18.614;2023-04-01T17:07:17;9.30;99.90
73586;DHT22;61865;50.232;18.614;2023-04-01T17:09:55;9.30;99.90
73586;DHT22;61865;50.232;18.614;2023-04-01T17:12:26;9.20;99.90
73586;DHT22;61865;50.232;18.614;2023-04-01T17:14:54;9.20;99.90
73586;DHT22;61865;50.232;18.614;2023-04-01T17:17:37;9.10;99.90
73586;DHT22;61865;50.232;18.614;2023-04-01T17:20:31;9.10;99.90
73586;DHT22;61865;50.232;18.614;2023-04-01T17:23:00;8.90;99.90
73586;DHT22;61865;50.232;18.614;2023-04-01T17:25:34;8.80;99.90
73586;DHT22;61865;50.232;18.614;2023-04-01T17:28:05;8.70;99.90
73586;DHT22;61865;50.232;18.614;2023-04-01T17:30:34;8.50;99.90
73586;DHT22;61865;50.232;18.614;2023-04-01T17:33:20;8.30;99.90